sensor_id;sensor_type;location;lat;lon;timestamp;pressure;altitude;pressure_sealevel;temperature;humidity
706;BME280;21234;48.690;9.016;2023-07-20T00:00:56;96044.97;;;18.06;61.72
706;BME280;21234;48.690;9.016;2023-07-20T00:03:23;96042.50;;;18.05;62.20
706;BME280;21234;48.690;9.016;2023-07-20T00:05:50;96043.03;;;18.07;62.46
706;BME280;21234;48.690;9.016;2023-07-20T00:08:17;96045.56;;;18.03;60.41
706;BME280;21234;48.690;9.016;2023-07-20T00:10:44;96040.75;;;17.95;59.17
706;BME280;21234;48.690;9.016;2023-07-20T00:13:11;96041.97;;;17.89;58.42
706;BME280;21234;48.690;9.016;2023-07-20T00:15:39;96049.50;;;17.84;58.67
706;BME280;21234;48.690;9.016;2023-07-20T00:18:06;96039.03;;;17.86;59.24
706;BME280;21234;48.690;9.016;2023-07-20T00:20:33;96043.78;;;17.80;57.43
706;BME280;21234;48.690;9.016;2023-07-20T00:23:00;96047.97;;;17.77;57.72
706;BME280;21234;48.690;9.016;2023-07-20T00:25:26;96050.69;;;17.77;58.68
706;BME280;21234;48.690;9.016;2023-07-20T00:27:53;96039.72;;;17.77;60.17
706;BME280;21234;48.690;9.016;2023-07-20T00:30:20;96043.88;;;17.75;57.39
706;BME280;21234;48.690;9.016;2023-07-20T00:32:48;96040.22;;;17.79;59.79
706;BME280;21234;48.690;9.016;2023-07-20T00:35:15;96048.56;;;17.74;57.62
706;BME280;21234;48.690;9.016;2023-07-20T00:37:42;96037.84;;;17.73;59.87
706;BME280;21234;48.690;9.016;2023-07-20T00:40:09;96047.34;;;17.62;58.37
706;BME280;21234;48.690;9.016;2023-07-20T00:42:36;96046.00;;;17.59;58.38
706;BME280;21234;48.690;9.016;2023-07-20T00:45:03;96053.44;;;17.59;58.57
706;BME280;21234;48.690;9.016;2023-07-20T00:47:30;96049.59;;;17.60;59.69
706;BME280;21234;48.690;9.016;2023-07-20T00:49:58;96048.34;;;17.52;58.72
706;BME280;21234;48.690;9.016;2023-07-20T00:52:25;96045.16;;;17.45;59.08
706;BME280;21234;48.690;9.016;2023-07-20T00:54:53;96047.69;;;17.41;58.91
706;BME280;21234;48.690;9.016;2023-07-20T00:57:22;96047.47;;;17.38;59.07
706;BME280;21234;48.690;9.016;2023-07-20T00:59:50;96048.06;;;17.35;58.97
706;BME280;21234;48.690;9.016;2023-07-20T01:02:17;96049.84;;;17.26;59.03
706;BME280;21234;48.690;9.016;2023-07-20T01:04:43;96051.78;;;17.25;60.31
706;BME280;21234;48.690;9.016;2023-07-20T01:07:26;96059.31;;;17.20;60.19
706;BME280;21234;48.690;9.016;2023-07-20T01:10:01;96051.44;;;17.13;59.47
706;BME280;21234;48.690;9.016;2023-07-20T01:12:33;96052.00;;;17.10;60.99
706;BME280;21234;48.690;9.016;2023-07-20T01:15:02;96049.84;;;17.07;60.16
706;BME280;21234;48.690;9.016;2023-07-20T01:17:29;96048.28;;;17.01;59.19
706;BME280;21234;48.690;9.016;2023-07-20T01:19:56;96046.06;;;17.03;61.87
706;BME280;21234;48.690;9.016;2023-07-20T01:22:39;96050.81;;;16.97;58.99
706;BME280;21234;48.690;9.016;2023-07-20T01:25:21;96050.69;;;16.89;59.26
706;BME280;21234;48.690;9.016;2023-07-20T01:30:59;96053.84;;;16.77;59.47
706;BME280;21234;48.690;9.016;2023-07-20T01:33:31;96053.56;;;16.78;59.55
706;BME280;21234;48.690;9.016;2023-07-20T01:35:59;96054.13;;;16.75;60.22
706;BME280;21234;48.690;9.016;2023-07-20T01:38:27;96045.97;;;16.70;59.43
706;BME280;21234;48.690;9.016;2023-07-20T01:40:54;96040.53;;;16.65;59.65
706;BME280;21234;48.690;9.016;2023-07-20T01:43:22;96049.63;;;16.61;60.57
706;BME280;21234;48.690;9.016;2023-07-20T01:45:49;96043.59;;;16.59;60.31
706;BME280;21234;48.690;9.016;2023-07-20T01:48:15;96046.16;;;16.55;60.39
706;BME280;21234;48.690;9.016;2023-07-20T01:50:45;96044.81;;;16.53;60.35
706;BME280;21234;48.690;9.016;2023-07-20T01:53:12;96042.41;;;16.46;60.57
706;BME280;21234;48.690;9.016;2023-07-20T01:55:38;96037.50;;;16.43;60.78
706;BME280;21234;48.690;9.016;2023-07-20T01:58:05;96034.69;;;16.48;62.49
706;BME280;21234;48.690;9.016;2023-07-20T02:00:32;96028.09;;;16.49;62.18
706;BME280;21234;48.690;9.016;2023-07-20T02:02:58;96033.66;;;16.44;61.18
706;BME280;21234;48.690;9.016;2023-07-20T02:05:25;96044.03;;;16.47;61.39
706;BME280;21234;48.690;9.016;2023-07-20T02:07:53;96040.25;;;16.43;61.22
706;BME280;21234;48.690;9.016;2023-07-20T02:10:20;96038.59;;;16.42;61.81
706;BME280;21234;48.690;9.016;2023-07-20T02:12:47;96040.53;;;16.41;62.57
706;BME280;21234;48.690;9.016;2023-07-20T02:15:14;96036.69;;;16.42;63.72
706;BME280;21234;48.690;9.016;2023-07-20T02:17:42;96041.94;;;16.39;61.61
706;BME280;21234;48.690;9.016;2023-07-20T02:20:09;96033.47;;;16.35;61.92
706;BME280;21234;48.690;9.016;2023-07-20T02:22:36;96040.00;;;16.39;62.41
706;BME280;21234;48.690;9.016;2023-07-20T02:25:05;96038.13;;;16.35;64.56
706;BME280;21234;48.690;9.016;2023-07-20T02:27:33;96034.34;;;16.31;62.59
706;BME280;21234;48.690;9.016;2023-07-20T02:29:59;96043.03;;;16.38;63.60
706;BME280;21234;48.690;9.016;2023-07-20T02:32:27;96048.06;;;16.31;64.16
706;BME280;21234;48.690;9.016;2023-07-20T02:34:54;96043.25;;;16.23;61.95
706;BME280;21234;48.690;9.016;2023-07-20T02:37:21;96046.47;;;16.25;63.84
706;BME280;21234;48.690;9.016;2023-07-20T02:39:48;96042.47;;;16.17;63.80
706;BME280;21234;48.690;9.016;2023-07-20T02:42:16;96040.34;;;16.09;65.48
706;BME280;21234;48.690;9.016;2023-07-20T02:44:43;96047.81;;;16.03;65.42
706;BME280;21234;48.690;9.016;2023-07-20T02:47:09;96050.56;;;16.03;65.22
706;BME280;21234;48.690;9.016;2023-07-20T02:49:36;96060.50;;;15.94;66.18
706;BME280;21234;48.690;9.016;2023-07-20T02:52:03;96062.44;;;15.94;66.27
706;BME280;21234;48.690;9.016;2023-07-20T02:54:30;96061.84;;;15.97;67.59
706;BME280;21234;48.690;9.016;2023-07-20T02:56:57;96058.38;;;15.91;65.96
706;BME280;21234;48.690;9.016;2023-07-20T02:59:25;96057.78;;;15.94;67.09
706;BME280;21234;48.690;9.016;2023-07-20T03:01:51;96056.66;;;15.95;66.52
706;BME280;21234;48.690;9.016;2023-07-20T03:04:19;96056.22;;;15.88;65.82
706;BME280;21234;48.690;9.016;2023-07-20T03:06:46;96060.78;;;15.93;67.78
706;BME280;21234;48.690;9.016;2023-07-20T03:09:13;96049.91;;;15.88;67.46
706;BME280;21234;48.690;9.016;2023-07-20T03:11:40;96057.59;;;15.86;67.38
706;BME280;21234;48.690;9.016;2023-07-20T03:14:07;96056.00;;;15.79;68.94
706;BME280;21234;48.690;9.016;2023-07-20T03:16:37;96051.38;;;15.75;69.27
706;BME280;21234;48.690;9.016;2023-07-20T03:19:03;96052.50;;;15.74;68.53
706;BME280;21234;48.690;9.016;2023-07-20T03:21:30;96055.28;;;15.69;68.85
706;BME280;21234;48.690;9.016;2023-07-20T03:23:57;96066.22;;;15.69;69.65
706;BME280;21234;48.690;9.016;2023-07-20T03:26:23;96065.09;;;15.75;69.83
706;BME280;21234;48.690;9.016;2023-07-20T03:28:50;96060.72;;;15.74;70.30
706;BME280;21234;48.690;9.016;2023-07-20T03:31:17;96077.19;;;15.69;70.11
706;BME280;21234;48.690;9.016;2023-07-20T03:33:45;96074.44;;;15.69;70.31
706;BME280;21234;48.690;9.016;2023-07-20T03:36:12;96069.00;;;15.64;68.80
706;BME280;21234;48.690;9.016;2023-07-20T03:38:39;96070.94;;;15.63;70.90
706;BME280;21234;48.690;9.016;2023-07-20T03:41:05;96070.94;;;15.63;71.15
706;BME280;21234;48.690;9.016;2023-07-20T03:43:32;96069.31;;;15.62;70.03
706;BME280;21234;48.690;9.016;2023-07-20T03:45:59;96075.94;;;15.51;68.47
706;BME280;21234;48.690;9.016;2023-07-20T03:48:26;96073.22;;;15.51;68.22
706;BME280;21234;48.690;9.016;2023-07-20T03:50:54;96068.84;;;15.50;69.76
706;BME280;21234;48.690;9.016;2023-07-20T03:53:21;96074.03;;;15.52;71.07
706;BME280;21234;48.690;9.016;2023-07-20T03:55:49;96083.88;;;15.53;71.27
706;BME280;21234;48.690;9.016;2023-07-20T03:58:16;96084.72;;;15.53;69.37
706;BME280;21234;48.690;9.016;2023-07-20T04:00:46;96074.28;;;15.55;72.41
706;BME280;21234;48.690;9.016;2023-07-20T04:03:13;96081.38;;;15.61;71.67
706;BME280;21234;48.690;9.016;2023-07-20T04:05:40;96083.28;;;15.61;71.92
706;BME280;21234;48.690;9.016;2023-07-20T04:08:09;96078.06;;;15.64;72.93
706;BME280;21234;48.690;9.016;2023-07-20T04:10:36;96078.50;;;15.76;71.86
706;BME280;21234;48.690;9.016;2023-07-20T04:13:03;96076.84;;;15.81;72.46
706;BME280;21234;48.690;9.016;2023-07-20T04:15:30;96082.81;;;15.88;72.49
706;BME280;21234;48.690;9.016;2023-07-20T04:17:57;96087.91;;;15.94;72.44
706;BME280;21234;48.690;9.016;2023-07-20T04:20:24;96086.00;;;15.95;71.65
706;BME280;21234;48.690;9.016;2023-07-20T04:22:50;96091.06;;;16.11;71.93
706;BME280;21234;48.690;9.016;2023-07-20T04:25:19;96091.09;;;16.06;70.75
706;BME280;21234;48.690;9.016;2023-07-20T04:27:45;96083.38;;;16.13;70.57
706;BME280;21234;48.690;9.016;2023-07-20T04:30:13;96092.94;;;16.16;70.59
706;BME280;21234;48.690;9.016;2023-07-20T04:32:41;96086.34;;;16.17;70.40
706;BME280;21234;48.690;9.016;2023-07-20T04:35:09;96089.34;;;16.21;70.94
706;BME280;21234;48.690;9.016;2023-07-20T04:37:36;96092.06;;;16.21;69.08
706;BME280;21234;48.690;9.016;2023-07-20T04:40:03;96081.84;;;16.26;69.83
706;BME280;21234;48.690;9.016;2023-07-20T04:42:31;96089.50;;;16.29;70.10
706;BME280;21234;48.690;9.016;2023-07-20T04:44:58;96085.00;;;16.38;71.78
706;BME280;21234;48.690;9.016;2023-07-20T04:47:25;96086.34;;;16.41;72.14
706;BME280;21234;48.690;9.016;2023-07-20T04:49:51;96085.81;;;16.39;71.17
706;BME280;21234;48.690;9.016;2023-07-20T04:52:18;96090.22;;;16.40;69.45
706;BME280;21234;48.690;9.016;2023-07-20T04:54:45;96087.94;;;16.47;70.14
706;BME280;21234;48.690;9.016;2023-07-20T04:57:12;96084.63;;;16.50;69.87
706;BME280;21234;48.690;9.016;2023-07-20T04:59:40;96089.88;;;16.46;67.38
706;BME280;21234;48.690;9.016;2023-07-20T05:02:07;96096.13;;;16.52;71.61
706;BME280;21234;48.690;9.016;2023-07-20T05:04:33;96093.91;;;16.54;70.01
706;BME280;21234;48.690;9.016;2023-07-20T05:07:00;96095.00;;;16.53;67.09
706;BME280;21234;48.690;9.016;2023-07-20T05:09:27;96092.25;;;16.53;67.29
706;BME280;21234;48.690;9.016;2023-07-20T05:11:53;96092.72;;;16.60;69.44
706;BME280;21234;48.690;9.016;2023-07-20T05:14:20;96096.78;;;16.63;68.61
706;BME280;21234;48.690;9.016;2023-07-20T05:16:48;96091.50;;;16.71;67.95
706;BME280;21234;48.690;9.016;2023-07-20T05:19:15;96093.97;;;16.73;67.23
706;BME280;21234;48.690;9.016;2023-07-20T05:21:42;96089.53;;;16.77;66.97
706;BME280;21234;48.690;9.016;2023-07-20T05:24:08;96091.47;;;16.76;66.65
706;BME280;21234;48.690;9.016;2023-07-20T05:26:35;96091.41;;;16.82;66.15
706;BME280;21234;48.690;9.016;2023-07-20T05:29:03;96091.25;;;16.92;67.10
706;BME280;21234;48.690;9.016;2023-07-20T05:31:30;96089.59;;;16.91;66.30
706;BME280;21234;48.690;9.016;2023-07-20T05:33:58;96080.19;;;16.97;67.44
706;BME280;21234;48.690;9.016;2023-07-20T05:36:25;96086.16;;;17.04;66.27
706;BME280;21234;48.690;9.016;2023-07-20T05:38:52;96082.97;;;17.16;68.40
706;BME280;21234;48.690;9.016;2023-07-20T05:41:18;96080.66;;;17.23;67.73
706;BME280;21234;48.690;9.016;2023-07-20T05:43:46;96079.06;;;17.22;67.78
706;BME280;21234;48.690;9.016;2023-07-20T05:46:12;96080.81;;;17.31;67.49
706;BME280;21234;48.690;9.016;2023-07-20T05:48:39;96080.16;;;17.39;68.41
706;BME280;21234;48.690;9.016;2023-07-20T05:51:07;96086.69;;;17.43;65.98
706;BME280;21234;48.690;9.016;2023-07-20T05:53:35;96086.53;;;17.54;66.52
706;BME280;21234;48.690;9.016;2023-07-20T05:56:01;96079.00;;;17.59;65.51
706;BME280;21234;48.690;9.016;2023-07-20T05:58:28;96081.91;;;17.68;68.32
706;BME280;21234;48.690;9.016;2023-07-20T06:00:55;96087.03;;;17.74;64.97
706;BME280;21234;48.690;9.016;2023-07-20T06:03:22;96085.94;;;17.75;64.20
706;BME280;21234;48.690;9.016;2023-07-20T06:05:48;96089.94;;;17.83;66.20
706;BME280;21234;48.690;9.016;2023-07-20T06:08:16;96092.16;;;17.81;65.34
706;BME280;21234;48.690;9.016;2023-07-20T06:10:43;96091.56;;;17.84;64.04
706;BME280;21234;48.690;9.016;2023-07-20T06:13:10;96090.84;;;17.78;63.98
706;BME280;21234;48.690;9.016;2023-07-20T06:15:37;96093.34;;;17.75;63.74
706;BME280;21234;48.690;9.016;2023-07-20T06:18:04;96094.09;;;17.81;65.54
706;BME280;21234;48.690;9.016;2023-07-20T06:20:31;96104.50;;;17.84;65.28
706;BME280;21234;48.690;9.016;2023-07-20T06:22:57;96097.19;;;17.93;66.26
706;BME280;21234;48.690;9.016;2023-07-20T06:25:26;96097.91;;;17.98;65.84
706;BME280;21234;48.690;9.016;2023-07-20T06:27:55;96089.97;;;17.97;64.97
706;BME280;21234;48.690;9.016;2023-07-20T06:30:22;96086.22;;;18.06;65.64
706;BME280;21234;48.690;9.016;2023-07-20T06:32:49;96090.81;;;18.11;64.06
706;BME280;21234;48.690;9.016;2023-07-20T06:35:16;96089.63;;;18.17;64.20
706;BME280;21234;48.690;9.016;2023-07-20T06:37:43;96094.69;;;18.24;62.78
706;BME280;21234;48.690;9.016;2023-07-20T06:40:11;96081.38;;;18.31;62.77
706;BME280;21234;48.690;9.016;2023-07-20T06:42:39;96085.34;;;18.38;61.02
706;BME280;21234;48.690;9.016;2023-07-20T06:45:06;96096.69;;;18.51;62.72
706;BME280;21234;48.690;9.016;2023-07-20T06:47:33;96095.09;;;18.63;61.18
706;BME280;21234;48.690;9.016;2023-07-20T06:50:00;96093.47;;;18.76;61.90
706;BME280;21234;48.690;9.016;2023-07-20T06:52:27;96094.88;;;18.87;61.88
706;BME280;21234;48.690;9.016;2023-07-20T06:54:54;96099.03;;;18.98;61.84
706;BME280;21234;48.690;9.016;2023-07-20T06:57:21;96092.66;;;19.25;60.80
706;BME280;21234;48.690;9.016;2023-07-20T06:59:49;96098.56;;;19.46;58.01
706;BME280;21234;48.690;9.016;2023-07-20T07:02:16;96091.16;;;19.69;57.99
706;BME280;21234;48.690;9.016;2023-07-20T07:04:42;96090.69;;;19.53;57.06
706;BME280;21234;48.690;9.016;2023-07-20T07:07:10;96096.28;;;19.62;57.24
706;BME280;21234;48.690;9.016;2023-07-20T07:09:37;96089.16;;;19.47;57.69
706;BME280;21234;48.690;9.016;2023-07-20T07:12:05;96089.91;;;19.97;57.16
706;BME280;21234;48.690;9.016;2023-07-20T07:14:32;96083.31;;;20.07;57.35
706;BME280;21234;48.690;9.016;2023-07-20T07:17:00;96076.03;;;20.73;55.74
706;BME280;21234;48.690;9.016;2023-07-20T07:19:26;96075.91;;;20.87;53.58
706;BME280;21234;48.690;9.016;2023-07-20T07:21:53;96082.94;;;21.01;52.99
706;BME280;21234;48.690;9.016;2023-07-20T07:24:20;96081.16;;;21.14;56.20
706;BME280;21234;48.690;9.016;2023-07-20T07:26:47;96073.75;;;21.32;53.84
706;BME280;21234;48.690;9.016;2023-07-20T07:29:13;96079.47;;;21.61;54.95
706;BME280;21234;48.690;9.016;2023-07-20T07:31:40;96083.03;;;21.88;51.92
706;BME280;21234;48.690;9.016;2023-07-20T07:34:08;96079.16;;;21.71;52.71
706;BME280;21234;48.690;9.016;2023-07-20T07:36:35;96078.31;;;21.97;51.98
706;BME280;21234;48.690;9.016;2023-07-20T07:39:01;96074.22;;;22.11;49.92
706;BME280;21234;48.690;9.016;2023-07-20T07:41:29;96072.75;;;22.23;50.56
706;BME280;21234;48.690;9.016;2023-07-20T07:43:55;96079.78;;;21.86;49.85
706;BME280;21234;48.690;9.016;2023-07-20T07:46:22;96071.31;;;21.30;51.88
706;BME280;21234;48.690;9.016;2023-07-20T07:48:49;96066.94;;;21.38;53.11
706;BME280;21234;48.690;9.016;2023-07-20T07:51:17;96067.56;;;21.95;51.47
706;BME280;21234;48.690;9.016;2023-07-20T07:53:45;96073.28;;;22.07;50.73
706;BME280;21234;48.690;9.016;2023-07-20T07:56:12;96069.09;;;22.48;49.33
706;BME280;21234;48.690;9.016;2023-07-20T07:58:38;96070.00;;;21.79;49.93
706;BME280;21234;48.690;9.016;2023-07-20T08:01:05;96069.56;;;21.69;51.01
706;BME280;21234;48.690;9.016;2023-07-20T08:03:32;96074.22;;;22.11;50.51
706;BME280;21234;48.690;9.016;2023-07-20T08:06:01;96069.91;;;22.49;48.93
706;BME280;21234;48.690;9.016;2023-07-20T08:08:31;96072.94;;;22.00;47.26
706;BME280;21234;48.690;9.016;2023-07-20T08:10:58;96069.50;;;22.29;48.68
706;BME280;21234;48.690;9.016;2023-07-20T08:13:25;96069.56;;;22.50;48.22
706;BME280;21234;48.690;9.016;2023-07-20T08:15:52;96067.91;;;22.66;47.27
706;BME280;21234;48.690;9.016;2023-07-20T08:18:19;96064.06;;;22.88;47.69
706;BME280;21234;48.690;9.016;2023-07-20T08:20:46;96065.84;;;22.93;49.02
706;BME280;21234;48.690;9.016;2023-07-20T08:23:14;96076.66;;;22.30;45.85
706;BME280;21234;48.690;9.016;2023-07-20T08:25:42;96069.00;;;22.19;46.16
706;BME280;21234;48.690;9.016;2023-07-20T08:28:10;96067.56;;;21.78;47.57
706;BME280;21234;48.690;9.016;2023-07-20T08:30:41;96067.88;;;21.25;48.74
706;BME280;21234;48.690;9.016;2023-07-20T08:33:09;96061.31;;;21.03;49.83
706;BME280;21234;48.690;9.016;2023-07-20T08:35:36;96069.59;;;20.95;51.97
706;BME280;21234;48.690;9.016;2023-07-20T08:38:02;96065.66;;;20.78;51.88
706;BME280;21234;48.690;9.016;2023-07-20T08:40:30;96064.22;;;20.90;52.20
706;BME280;21234;48.690;9.016;2023-07-20T08:42:59;96076.19;;;21.33;52.03
706;BME280;21234;48.690;9.016;2023-07-20T08:45:27;96060.56;;;21.46;50.42
706;BME280;21234;48.690;9.016;2023-07-20T08:47:56;96066.25;;;21.24;50.25
706;BME280;21234;48.690;9.016;2023-07-20T08:50:25;96059.19;;;20.92;49.88
706;BME280;21234;48.690;9.016;2023-07-20T08:52:53;96072.56;;;20.59;50.77
706;BME280;21234;48.690;9.016;2023-07-20T08:55:20;96062.31;;;20.28;51.69
706;BME280;21234;48.690;9.016;2023-07-20T08:57:49;96063.44;;;20.27;51.33
706;BME280;21234;48.690;9.016;2023-07-20T09:00:19;96063.31;;;21.11;50.36
706;BME280;21234;48.690;9.016;2023-07-20T09:02:48;96060.34;;;21.17;48.78
706;BME280;21234;48.690;9.016;2023-07-20T09:05:15;96059.13;;;21.31;51.48
706;BME280;21234;48.690;9.016;2023-07-20T09:07:42;96055.38;;;21.44;49.14
706;BME280;21234;48.690;9.016;2023-07-20T09:10:09;96051.63;;;21.49;50.12
706;BME280;21234;48.690;9.016;2023-07-20T09:12:38;96049.59;;;22.36;46.97
706;BME280;21234;48.690;9.016;2023-07-20T09:15:07;96058.44;;;23.05;44.20
706;BME280;21234;48.690;9.016;2023-07-20T09:17:35;96049.75;;;23.07;43.55
706;BME280;21234;48.690;9.016;2023-07-20T09:20:04;96052.00;;;22.46;45.32
706;BME280;21234;48.690;9.016;2023-07-20T09:22:36;96047.53;;;21.98;45.26
706;BME280;21234;48.690;9.016;2023-07-20T09:25:06;96061.41;;;21.46;45.89
706;BME280;21234;48.690;9.016;2023-07-20T09:27:37;96058.91;;;21.19;46.87
706;BME280;21234;48.690;9.016;2023-07-20T09:30:05;96053.19;;;20.98;48.39
706;BME280;21234;48.690;9.016;2023-07-20T09:32:39;96058.81;;;20.85;48.22
706;BME280;21234;48.690;9.016;2023-07-20T09:35:12;96059.25;;;20.61;45.93
706;BME280;21234;48.690;9.016;2023-07-20T09:37:39;96072.81;;;20.88;48.63
706;BME280;21234;48.690;9.016;2023-07-20T09:40:07;96055.53;;;21.91;47.03
706;BME280;21234;48.690;9.016;2023-07-20T09:42:35;96050.31;;;22.62;45.71
706;BME280;21234;48.690;9.016;2023-07-20T09:45:04;96056.56;;;23.18;43.49
706;BME280;21234;48.690;9.016;2023-07-20T09:47:35;96061.69;;;23.58;40.54
706;BME280;21234;48.690;9.016;2023-07-20T09:50:05;96053.81;;;24.01;41.90
706;BME280;21234;48.690;9.016;2023-07-20T09:52:37;96055.66;;;24.30;38.64
706;BME280;21234;48.690;9.016;2023-07-20T09:55:05;96044.38;;;24.60;39.52
706;BME280;21234;48.690;9.016;2023-07-20T09:57:33;96036.84;;;24.72;37.64
706;BME280;21234;48.690;9.016;2023-07-20T10:00:01;96043.34;;;24.76;39.21
706;BME280;21234;48.690;9.016;2023-07-20T10:02:32;96040.16;;;24.29;36.64
706;BME280;21234;48.690;9.016;2023-07-20T10:05:02;96045.53;;;23.60;37.59
706;BME280;21234;48.690;9.016;2023-07-20T10:07:31;96049.03;;;22.98;40.93
706;BME280;21234;48.690;9.016;2023-07-20T10:10:01;96041.94;;;22.33;43.13
706;BME280;21234;48.690;9.016;2023-07-20T10:12:30;96049.81;;;22.60;42.03
706;BME280;21234;48.690;9.016;2023-07-20T10:15:04;96043.56;;;23.10;41.63
706;BME280;21234;48.690;9.016;2023-07-20T10:17:38;96040.03;;;22.63;41.10
706;BME280;21234;48.690;9.016;2023-07-20T10:20:07;96032.63;;;22.75;42.71
706;BME280;21234;48.690;9.016;2023-07-20T10:22:38;96034.81;;;23.29;40.54
706;BME280;21234;48.690;9.016;2023-07-20T10:25:06;96034.47;;;23.72;40.16
706;BME280;21234;48.690;9.016;2023-07-20T10:27:34;96029.91;;;23.88;39.71
706;BME280;21234;48.690;9.016;2023-07-20T10:30:01;96029.44;;;23.86;36.79
706;BME280;21234;48.690;9.016;2023-07-20T10:32:29;96027.88;;;23.97;37.63
706;BME280;21234;48.690;9.016;2023-07-20T10:34:57;96008.31;;;24.27;37.00
706;BME280;21234;48.690;9.016;2023-07-20T10:37:47;96011.59;;;24.53;39.35
706;BME280;21234;48.690;9.016;2023-07-20T10:40:34;96005.69;;;24.91;34.90
706;BME280;21234;48.690;9.016;2023-07-20T10:43:04;96009.41;;;25.20;34.80
706;BME280;21234;48.690;9.016;2023-07-20T10:45:36;96001.09;;;24.95;37.98
706;BME280;21234;48.690;9.016;2023-07-20T10:48:08;96013.88;;;24.27;35.55
706;BME280;21234;48.690;9.016;2023-07-20T10:50:40;96012.97;;;24.02;39.28
706;BME280;21234;48.690;9.016;2023-07-20T10:53:16;96003.75;;;24.22;36.78
706;BME280;21234;48.690;9.016;2023-07-20T10:55:43;95992.25;;;24.57;35.93
706;BME280;21234;48.690;9.016;2023-07-20T10:58:12;95990.16;;;24.54;36.08
706;BME280;21234;48.690;9.016;2023-07-20T11:00:55;95987.03;;;24.92;34.51
706;BME280;21234;48.690;9.016;2023-07-20T11:03:28;95992.13;;;25.14;34.44
706;BME280;21234;48.690;9.016;2023-07-20T11:05:57;95986.81;;;24.72;33.91
706;BME280;21234;48.690;9.016;2023-07-20T11:08:40;95997.00;;;24.11;33.92
706;BME280;21234;48.690;9.016;2023-07-20T11:11:24;95997.47;;;24.13;35.32
706;BME280;21234;48.690;9.016;2023-07-20T11:13:55;95995.59;;;24.50;36.33
706;BME280;21234;48.690;9.016;2023-07-20T11:16:34;96002.00;;;24.63;32.79
706;BME280;21234;48.690;9.016;2023-07-20T11:19:01;95998.06;;;24.64;33.21
706;BME280;21234;48.690;9.016;2023-07-20T11:21:28;96000.47;;;23.75;33.29
706;BME280;21234;48.690;9.016;2023-07-20T11:23:56;96004.31;;;23.70;34.22
706;BME280;21234;48.690;9.016;2023-07-20T11:26:23;95993.13;;;23.37;35.35
706;BME280;21234;48.690;9.016;2023-07-20T11:28:50;95993.88;;;23.67;33.73
706;BME280;21234;48.690;9.016;2023-07-20T11:31:17;95979.66;;;24.14;33.44
706;BME280;21234;48.690;9.016;2023-07-20T11:33:44;96000.94;;;24.10;35.22
706;BME280;21234;48.690;9.016;2023-07-20T11:36:11;95990.13;;;23.84;33.55
706;BME280;21234;48.690;9.016;2023-07-20T11:38:41;95980.47;;;24.02;35.34
706;BME280;21234;48.690;9.016;2023-07-20T11:41:09;95978.69;;;24.43;34.23
706;BME280;21234;48.690;9.016;2023-07-20T11:43:39;95969.22;;;24.56;36.45
706;BME280;21234;48.690;9.016;2023-07-20T11:46:07;95972.91;;;24.85;32.26
706;BME280;21234;48.690;9.016;2023-07-20T11:48:34;95968.63;;;24.38;31.92
706;BME280;21234;48.690;9.016;2023-07-20T11:51:01;95970.59;;;24.38;34.00
706;BME280;21234;48.690;9.016;2023-07-20T11:53:28;95972.44;;;24.46;35.59
706;BME280;21234;48.690;9.016;2023-07-20T11:55:55;95974.72;;;24.20;34.37
706;BME280;21234;48.690;9.016;2023-07-20T11:58:24;95973.38;;;24.26;33.45
706;BME280;21234;48.690;9.016;2023-07-20T12:00:51;95963.06;;;24.26;35.54
706;BME280;21234;48.690;9.016;2023-07-20T12:03:17;95962.28;;;24.62;38.99
706;BME280;21234;48.690;9.016;2023-07-20T12:05:44;95956.94;;;24.82;35.70
706;BME280;21234;48.690;9.016;2023-07-20T12:08:11;95956.91;;;25.06;34.84
706;BME280;21234;48.690;9.016;2023-07-20T12:10:39;95955.75;;;25.19;33.12
706;BME280;21234;48.690;9.016;2023-07-20T12:13:10;95954.38;;;25.41;35.76
706;BME280;21234;48.690;9.016;2023-07-20T12:15:38;95945.56;;;25.11;33.47
706;BME280;21234;48.690;9.016;2023-07-20T12:18:05;95944.44;;;24.51;34.58
706;BME280;21234;48.690;9.016;2023-07-20T12:20:33;95943.09;;;24.00;34.36
706;BME280;21234;48.690;9.016;2023-07-20T12:23:02;95953.63;;;23.61;35.91
706;BME280;21234;48.690;9.016;2023-07-20T12:25:48;95941.38;;;24.20;35.15
706;BME280;21234;48.690;9.016;2023-07-20T12:28:16;95935.19;;;24.96;35.97
706;BME280;21234;48.690;9.016;2023-07-20T12:30:45;95944.31;;;24.96;34.43
706;BME280;21234;48.690;9.016;2023-07-20T12:33:13;95936.41;;;25.10;33.41
706;BME280;21234;48.690;9.016;2023-07-20T12:35:41;95937.66;;;25.25;35.27
706;BME280;21234;48.690;9.016;2023-07-20T12:38:08;95932.59;;;25.43;33.42
706;BME280;21234;48.690;9.016;2023-07-20T12:40:35;95937.69;;;25.41;32.91
706;BME280;21234;48.690;9.016;2023-07-20T12:43:02;95928.91;;;24.99;33.91
706;BME280;21234;48.690;9.016;2023-07-20T12:45:29;95916.03;;;24.94;36.04
706;BME280;21234;48.690;9.016;2023-07-20T12:47:57;95923.19;;;25.20;32.78
706;BME280;21234;48.690;9.016;2023-07-20T12:50:24;95917.66;;;25.35;34.22
706;BME280;21234;48.690;9.016;2023-07-20T12:52:51;95919.69;;;25.51;34.97
706;BME280;21234;48.690;9.016;2023-07-20T12:55:17;95916.91;;;25.78;34.41
706;BME280;21234;48.690;9.016;2023-07-20T12:57:45;95916.59;;;25.96;30.69
706;BME280;21234;48.690;9.016;2023-07-20T13:00:14;95905.88;;;25.82;32.91
706;BME280;21234;48.690;9.016;2023-07-20T13:02:41;95908.97;;;25.93;33.33
706;BME280;21234;48.690;9.016;2023-07-20T13:05:10;95897.56;;;25.98;32.07
706;BME280;21234;48.690;9.016;2023-07-20T13:07:38;95897.66;;;26.33;33.81
706;BME280;21234;48.690;9.016;2023-07-20T13:10:05;95911.31;;;26.38;29.38
706;BME280;21234;48.690;9.016;2023-07-20T13:12:33;95911.31;;;26.38;30.52
706;BME280;21234;48.690;9.016;2023-07-20T13:15:03;95903.41;;;26.24;32.28
706;BME280;21234;48.690;9.016;2023-07-20T13:17:31;95896.94;;;26.20;30.55
706;BME280;21234;48.690;9.016;2023-07-20T13:19:57;95891.06;;;26.09;30.62
706;BME280;21234;48.690;9.016;2023-07-20T13:22:26;95899.53;;;25.97;30.96
706;BME280;21234;48.690;9.016;2023-07-20T13:24:52;95899.78;;;26.08;33.23
706;BME280;21234;48.690;9.016;2023-07-20T13:27:19;95901.06;;;26.10;30.95
706;BME280;21234;48.690;9.016;2023-07-20T13:29:46;95891.81;;;25.91;30.83